Orbital elements of FENGYUN 1C DEB
| Launched | 9 May 1999 |
| Flight ended | – |
| Launch site | Taiyuan Space Center, PRC |
| Owner | People's Republic of China |
| NORAD ID | 32212 |
| Date fetched |
Epoch osculation |
Inc. [°] |
Ecc. | RA asc node [hr] |
Arg Peri. [°] |
Mean anom [°] |
Mean motion [rev/day] |
Abs. mag |
| Date fetched |
Epoch osculation |
Inc. [°] |
Ecc. | RA asc node [hr] |
Arg Peri. [°] |
Mean anom [°] |
Mean motion [rev/day] |
Abs. mag |
| 2026 May 07 17:58 | 2026 May 02 06:55:15 | 99.5768 | 0.01364 | 16.0400 | 31.0149 | 354.2430 | 14.40878 | – |
| 2026 May 06 17:57 | 2026 May 02 06:55:15 | 99.5768 | 0.01364 | 16.0400 | 31.0149 | 354.2430 | 14.40878 | – |
| 2026 May 05 17:57 | 2026 May 02 06:55:15 | 99.5768 | 0.01364 | 16.0400 | 31.0149 | 354.2430 | 14.40878 | – |
| 2026 May 04 17:57 | 2026 Apr 30 13:29:36 | 99.5767 | 0.01365 | 15.9112 | 36.0205 | 354.2430 | 14.40878 | – |
| 2026 May 03 17:57 | 2026 Apr 30 13:29:36 | 99.5767 | 0.01365 | 15.9112 | 36.0205 | 354.2430 | 14.40878 | – |
| 2026 May 02 17:57 | 2026 Apr 30 13:29:36 | 99.5767 | 0.01365 | 15.9112 | 36.0205 | 354.2430 | 14.40878 | – |
| 2026 May 01 17:56 | 2026 Apr 30 13:29:36 | 99.5767 | 0.01365 | 15.9112 | 36.0205 | 354.2430 | 14.40878 | – |
| 2026 Apr 30 17:56 | 2026 Apr 30 13:29:36 | 99.5767 | 0.01365 | 15.9112 | 36.0205 | 354.2430 | 14.40878 | – |
| 2026 Apr 29 17:57 | 2026 Apr 24 07:16:07 | 99.5757 | 0.01369 | 15.4442 | 54.1753 | 354.2430 | 14.40878 | – |
| 2026 Apr 28 17:56 | 2026 Apr 24 07:16:07 | 99.5757 | 0.01369 | 15.4442 | 54.1753 | 354.2430 | 14.40878 | – |
| 2026 Apr 27 17:58 | 2026 Apr 24 07:16:07 | 99.5757 | 0.01369 | 15.4442 | 54.1753 | 354.2430 | 14.40878 | – |
| 2026 Apr 26 17:58 | 2026 Apr 24 07:16:07 | 99.5757 | 0.01369 | 15.4442 | 54.1753 | 354.2430 | 14.40878 | – |
| 2026 Apr 25 17:58 | 2026 Apr 24 07:16:07 | 99.5757 | 0.01369 | 15.4442 | 54.1753 | 354.2430 | 14.40878 | – |
| 2026 Apr 24 17:59 | 2026 Apr 24 07:16:07 | 99.5757 | 0.01369 | 15.4442 | 54.1753 | 354.2430 | 14.40878 | – |
| 2026 Apr 23 17:57 | 2026 Apr 17 19:10:52 | 99.5737 | 0.01370 | 14.9589 | 72.9533 | 354.2430 | 14.40878 | – |
| 2026 Apr 22 17:57 | 2026 Apr 17 19:10:52 | 99.5737 | 0.01370 | 14.9589 | 72.9533 | 354.2430 | 14.40878 | – |
| 2026 Apr 21 17:57 | 2026 Apr 17 19:10:52 | 99.5737 | 0.01370 | 14.9589 | 72.9533 | 354.2430 | 14.40878 | – |
| 2026 Apr 20 17:57 | 2026 Apr 17 19:10:52 | 99.5737 | 0.01370 | 14.9589 | 72.9533 | 354.2430 | 14.40878 | – |
| 2026 Apr 19 17:58 | 2026 Apr 17 19:10:52 | 99.5737 | 0.01370 | 14.9589 | 72.9533 | 354.2430 | 14.40878 | – |
| 2026 Apr 18 17:56 | 2026 Apr 10 06:37:57 | 99.5716 | 0.01373 | 14.3978 | 94.6624 | 354.2430 | 14.40878 | – |
| 2026 Apr 16 17:57 | 2026 Apr 10 06:37:57 | 99.5716 | 0.01373 | 14.3978 | 94.6624 | 354.2430 | 14.40878 | – |
| 2026 Apr 14 17:57 | 2026 Apr 10 06:37:57 | 99.5716 | 0.01373 | 14.3978 | 94.6624 | 354.2430 | 14.40878 | – |
| 2026 Apr 13 17:57 | 2026 Apr 10 06:37:57 | 99.5716 | 0.01373 | 14.3978 | 94.6624 | 354.2430 | 14.40878 | – |
| 2026 Apr 12 17:57 | 2026 Apr 08 06:18:10 | 99.5725 | 0.01372 | 14.2476 | 100.4737 | 354.2430 | 14.40878 | – |
| 2026 Apr 11 17:57 | 2026 Apr 08 06:18:10 | 99.5725 | 0.01372 | 14.2476 | 100.4737 | 354.2430 | 14.40878 | – |
| 2026 Apr 10 17:58 | 2026 Apr 08 06:18:10 | 99.5725 | 0.01372 | 14.2476 | 100.4737 | 354.2430 | 14.40878 | – |